Time;durP1;ratioP1;P1;durP2;ratioP2;P2;SDS_P1;SDS_P2;PMS_P1;PMS_P2;Temp;Humidity;BMP_temperature;BMP_pressure;BME280_temperature;BME280_humidity;BME280_pressure;Samples;Min_cycle;Max_cycle;Signal;HPM_P1;HPM_P2
2021/09/26 00:01:21;;;;;;;19.13;13.47;;;16.60;99.90;;;;;;5079074;28;20456;-63
2021/09/26 00:03:47;;;;;;;17.90;13.33;;;16.60;99.90;;;;;;5097153;28;20452;-63
2021/09/26 00:06:13;;;;;;;21.17;13.10;;;16.60;99.90;;;;;;5079031;28;20766;-63
2021/09/26 00:08:39;;;;;;;16.40;11.63;;;16.50;99.90;;;;;;5097194;28;20199;-63
2021/09/26 00:11:07;;;;;;;16.30;12.73;;;16.50;99.90;;;;;;5097188;28;20507;-63
2021/09/26 00:13:38;;;;;;;19.07;12.90;;;16.50;99.90;;;;;;5097029;28;20232;-63
2021/09/26 00:16:06;;;;;;;15.70;13.13;;;16.50;99.90;;;;;;5096928;28;20486;-63
2021/09/26 00:18:32;;;;;;;18.67;13.37;;;16.50;99.90;;;;;;5096981;28;20474;-63
2021/09/26 00:20:57;;;;;;;16.43;12.33;;;16.40;99.90;;;;;;5097045;28;20459;-63
2021/09/26 00:23:25;;;;;;;17.90;12.70;;;16.40;99.90;;;;;;5096841;28;20412;-63
2021/09/26 00:25:52;;;;;;;17.90;12.40;;;16.40;99.90;;;;;;5096924;28;20203;-63
2021/09/26 00:28:19;;;;;;;18.70;13.10;;;16.30;99.90;;;;;;5096852;28;20383;-63
2021/09/26 00:30:46;;;;;;;20.57;14.10;;;16.30;99.90;;;;;;5096813;28;20379;-63
2021/09/26 00:33:11;;;;;;;18.40;13.27;;;16.30;99.90;;;;;;5096665;28;20453;-63
2021/09/26 00:35:37;;;;;;;18.53;13.43;;;16.30;99.90;;;;;;5096668;28;20484;-63
2021/09/26 00:38:03;;;;;;;18.20;13.77;;;16.20;99.90;;;;;;5096555;28;20176;-64
2021/09/26 00:40:29;;;;;;;22.47;13.93;;;16.20;99.90;;;;;;5096528;28;20192;-63
2021/09/26 00:42:54;;;;;;;16.87;13.37;;;16.20;99.90;;;;;;5096472;28;20389;-64
2021/09/26 00:45:20;;;;;;;18.63;14.40;;;16.20;99.90;;;;;;5096316;28;20212;-63
2021/09/26 00:47:47;;;;;;;17.97;13.00;;;16.20;99.90;;;;;;5078264;28;20208;-63
2021/09/26 00:50:12;;;;;;;16.63;13.27;;;16.20;99.90;;;;;;5096325;28;20395;-63
2021/09/26 00:52:40;;;;;;;24.57;14.83;;;16.20;99.90;;;;;;5096822;28;20428;-63
2021/09/26 00:55:06;;;;;;;23.47;13.40;;;16.10;99.90;;;;;;5096288;28;20417;-63
2021/09/26 00:57:33;;;;;;;16.90;12.27;;;16.10;99.90;;;;;;5095766;28;20496;-64
2021/09/26 00:59:59;;;;;;;19.67;13.47;;;16.10;99.90;;;;;;5096158;28;20929;-63
2021/09/26 01:02:25;;;;;;;18.47;13.13;;;16.10;99.90;;;;;;5096633;28;20449;-63
2021/09/26 01:04:51;;;;;;;18.03;12.13;;;16.10;99.90;;;;;;5095944;28;20204;-63
2021/09/26 01:07:32;;;;;;;19.60;13.03;;;16.00;99.90;;;;;;5096007;28;20241;-63
2021/09/26 01:10:07;;;;;;;15.80;12.13;;;16.00;99.90;;;;;;5095970;28;20807;-63
2021/09/26 01:12:32;;;;;;;18.40;13.70;;;16.00;99.90;;;;;;5096471;28;20428;-63
2021/09/26 01:15:30;;;;;;;20.63;12.93;;;16.00;99.90;;;;;;5077596;28;20433;-63
2021/09/26 01:18:16;;;;;;;20.03;14.40;;;16.00;99.90;;;;;;5032309;28;20308;-63
2021/09/26 01:20:48;;;;;;;18.40;13.00;;;15.90;99.90;;;;;;5055533;28;20414;-63
2021/09/26 01:23:28;;;;;;;21.37;13.70;;;15.90;99.90;;;;;;5055471;28;20403;-63
2021/09/26 01:26:14;;;;;;;16.10;13.07;;;15.90;99.90;;;;;;5055672;28;20754;-63
2021/09/26 01:28:58;;;;;;;18.83;14.00;;;15.80;99.90;;;;;;5055571;28;20845;-63
2021/09/26 01:31:26;;;;;;;22.13;13.67;;;15.80;99.90;;;;;;5054032;28;20457;-63
2021/09/26 01:33:58;;;;;;;16.87;12.97;;;15.80;99.90;;;;;;5055224;28;20427;-63
2021/09/26 01:36:37;;;;;;;17.93;13.53;;;15.70;99.90;;;;;;5055518;28;20415;-63
2021/09/26 01:39:21;;;;;;;19.73;12.80;;;15.70;99.90;;;;;;5053861;28;20438;-63
2021/09/26 01:41:55;;;;;;;17.63;12.53;;;15.60;99.90;;;;;;5055191;28;20426;-63
2021/09/26 01:44:38;;;;;;;18.70;12.70;;;15.60;99.90;;;;;;5055102;28;20470;-63
2021/09/26 01:47:06;;;;;;;19.90;12.80;;;15.60;99.90;;;;;;5053919;28;20431;-63
2021/09/26 01:49:39;;;;;;;20.13;14.13;;;15.50;99.90;;;;;;5055059;28;20453;-63
2021/09/26 01:52:09;;;;;;;19.63;12.77;;;15.50;99.90;;;;;;5055208;28;20418;-63
2021/09/26 01:54:35;;;;;;;19.87;13.30;;;15.50;99.90;;;;;;5055106;28;20442;-63
2021/09/26 01:57:02;;;;;;;18.70;13.90;;;15.40;99.90;;;;;;5053497;28;20476;-63
2021/09/26 01:59:28;;;;;;;23.77;14.17;;;15.40;99.90;;;;;;5054794;28;20454;-63
2021/09/26 02:01:56;;;;;;;15.77;12.57;;;15.30;99.90;;;;;;5053746;28;20430;-63
2021/09/26 02:04:24;;;;;;;17.93;13.10;;;15.40;99.90;;;;;;5054573;28;20502;-63
2021/09/26 02:06:51;;;;;;;20.60;13.00;;;15.30;99.90;;;;;;5054595;28;20784;-63
2021/09/26 02:09:17;;;;;;;19.60;13.50;;;15.30;99.90;;;;;;5054422;28;20426;-63
2021/09/26 02:11:45;;;;;;;21.20;13.73;;;15.20;99.90;;;;;;5054828;28;20417;-63
2021/09/26 02:14:12;;;;;;;18.17;13.60;;;15.20;99.90;;;;;;5054509;28;20450;-63
2021/09/26 02:16:39;;;;;;;22.80;14.67;;;15.20;99.90;;;;;;5053085;28;20474;-63
2021/09/26 02:19:06;;;;;;;21.50;13.70;;;15.10;99.90;;;;;;5053106;28;20543;-63
2021/09/26 02:21:33;;;;;;;20.87;13.27;;;15.10;99.90;;;;;;5054597;28;20517;-63
2021/09/26 02:24:01;;;;;;;19.27;13.73;;;15.10;99.90;;;;;;5054161;28;20463;-63
2021/09/26 02:26:27;;;;;;;21.37;14.20;;;15.10;99.90;;;;;;5054611;28;20422;-63
2021/09/26 02:28:53;;;;;;;22.47;14.13;;;15.00;99.90;;;;;;5054163;28;20865;-64
2021/09/26 02:31:18;;;;;;;17.30;12.07;;;15.00;99.90;;;;;;5054496;28;20458;-63
2021/09/26 02:33:45;;;;;;;17.80;13.67;;;15.00;99.90;;;;;;5054170;28;20189;-63
2021/09/26 02:36:13;;;;;;;20.97;13.43;;;15.00;99.90;;;;;;5054423;28;20170;-63
2021/09/26 02:38:39;;;;;;;18.03;13.93;;;15.00;99.90;;;;;;5054065;28;20425;-64
2021/09/26 02:41:34;;;;;;;21.80;13.73;;;14.90;99.90;;;;;;5053999;28;20430;-63
2021/09/26 02:44:25;;;;;;;24.33;13.20;;;14.90;99.90;;;;;;5048427;28;20474;-63
2021/09/26 02:47:02;;;;;;;19.07;13.17;;;14.90;99.90;;;;;;5054402;28;20494;-63
2021/09/26 02:49:29;;;;;;;20.20;13.17;;;14.80;99.90;;;;;;5053969;28;20502;-63
2021/09/26 02:51:55;;;;;;;16.97;13.57;;;14.90;99.90;;;;;;5054174;28;20431;-63
2021/09/26 02:54:22;;;;;;;19.80;12.80;;;14.80;99.90;;;;;;5053742;28;20455;-63
2021/09/26 02:56:50;;;;;;;19.10;13.43;;;14.90;99.90;;;;;;5054177;28;20933;-63
2021/09/26 02:59:16;;;;;;;18.17;14.63;;;14.80;99.90;;;;;;5053835;28;20438;-63
2021/09/26 03:01:52;;;;;;;22.43;14.67;;;14.80;99.90;;;;;;5052647;28;20774;-63
2021/09/26 03:04:19;;;;;;;17.97;13.90;;;14.80;99.90;;;;;;5052434;28;20462;-63
2021/09/26 03:06:44;;;;;;;17.37;13.53;;;14.80;99.90;;;;;;5054014;28;20422;-63
2021/09/26 03:09:10;;;;;;;19.23;13.80;;;14.80;99.90;;;;;;5053583;28;20431;-63
2021/09/26 03:11:35;;;;;;;22.87;14.93;;;14.80;99.90;;;;;;5053887;28;20220;-63
2021/09/26 03:14:01;;;;;;;17.53;13.40;;;14.80;99.90;;;;;;5052258;28;20247;-63
2021/09/26 03:16:27;;;;;;;20.90;15.07;;;14.80;99.90;;;;;;5063968;28;20583;-63
2021/09/26 03:18:52;;;;;;;22.43;14.97;;;14.80;99.90;;;;;;5093568;28;20211;-63
2021/09/26 03:21:18;;;;;;;20.97;14.27;;;14.80;99.90;;;;;;5093475;28;20184;-63
2021/09/26 03:23:43;;;;;;;20.00;14.70;;;14.80;99.90;;;;;;5075476;28;20557;-63
2021/09/26 03:26:09;;;;;;;23.03;14.70;;;14.80;99.90;;;;;;5093771;28;20176;-63
2021/09/26 03:28:35;;;;;;;21.07;15.17;;;14.80;99.90;;;;;;5093696;28;20674;-64
2021/09/26 03:31:00;;;;;;;19.53;14.50;;;14.80;99.90;;;;;;5093693;28;20646;-63
2021/09/26 03:33:26;;;;;;;25.50;15.50;;;14.80;99.90;;;;;;5093733;28;20255;-63
2021/09/26 03:35:52;;;;;;;21.17;13.70;;;14.80;99.90;;;;;;5075578;28;20185;-63
2021/09/26 03:38:17;;;;;;;22.53;15.07;;;14.70;99.90;;;;;;5075530;28;20222;-63
2021/09/26 03:40:43;;;;;;;22.93;14.47;;;14.70;99.90;;;;;;5093573;28;20268;-63
2021/09/26 03:43:09;;;;;;;22.07;15.80;;;14.70;99.90;;;;;;5075498;28;20225;-63
2021/09/26 03:45:34;;;;;;;24.87;16.50;;;14.70;99.90;;;;;;5093511;28;20303;-63
2021/09/26 03:48:00;;;;;;;20.90;15.43;;;14.70;99.90;;;;;;5075482;28;20659;-64
2021/09/26 03:50:26;;;;;;;21.57;14.80;;;14.80;99.90;;;;;;5093378;28;20673;-63
2021/09/26 03:52:52;;;;;;;22.93;14.90;;;14.80;99.90;;;;;;5093419;28;20247;-63
2021/09/26 03:55:18;;;;;;;21.37;14.50;;;14.80;99.90;;;;;;5093414;28;20566;-63
2021/09/26 03:57:44;;;;;;;27.50;17.53;;;14.80;99.90;;;;;;5093958;28;20210;-63
2021/09/26 04:00:16;;;;;;;21.70;17.20;;;14.80;99.90;;;;;;5093460;28;20441;-63
2021/09/26 04:02:42;;;;;;;26.27;17.63;;;14.80;99.90;;;;;;5093323;28;20409;-63
2021/09/26 04:05:09;;;;;;;22.63;15.97;;;14.80;99.90;;;;;;5093281;28;20463;-63
2021/09/26 04:07:35;;;;;;;22.47;16.27;;;14.80;99.90;;;;;;5093853;28;20420;-63
2021/09/26 04:10:02;;;;;;;25.27;17.00;;;14.80;99.90;;;;;;5093256;28;20417;-63
2021/09/26 04:12:28;;;;;;;24.23;16.30;;;14.70;99.90;;;;;;5075420;28;20417;-63
2021/09/26 04:14:54;;;;;;;24.90;16.40;;;14.70;99.90;;;;;;5075110;28;20491;-63
2021/09/26 04:17:19;;;;;;;21.60;16.10;;;14.70;99.90;;;;;;5093265;28;20238;-63
2021/09/26 04:19:45;;;;;;;22.63;15.27;;;14.70;99.90;;;;;;5093165;28;20620;-63
2021/09/26 04:22:10;;;;;;;24.43;16.00;;;14.70;99.90;;;;;;5093677;28;20181;-63
2021/09/26 04:24:36;;;;;;;23.80;15.63;;;14.70;99.90;;;;;;5093093;28;20247;-63
2021/09/26 04:27:02;;;;;;;31.10;16.67;;;14.70;99.90;;;;;;5075263;28;20185;-63
2021/09/26 04:29:27;;;;;;;27.20;17.77;;;14.70;99.90;;;;;;5075063;28;20631;-63
2021/09/26 04:31:53;;;;;;;24.23;17.23;;;14.70;99.90;;;;;;5094237;28;20263;-63
2021/09/26 04:34:19;;;;;;;21.83;15.33;;;14.70;99.90;;;;;;5096644;28;20235;-63
2021/09/26 04:36:45;;;;;;;22.43;16.43;;;14.70;99.90;;;;;;5096993;28;20208;-63
2021/09/26 04:39:11;;;;;;;23.20;15.13;;;14.70;99.90;;;;;;5096384;28;20452;-63
2021/09/26 04:41:36;;;;;;;22.90;15.70;;;14.60;99.90;;;;;;5096785;28;20177;-63
2021/09/26 04:44:02;;;;;;;26.40;18.00;;;14.60;99.90;;;;;;5095005;28;20287;-63
2021/09/26 04:46:28;;;;;;;21.40;15.60;;;14.60;99.90;;;;;;5094953;28;20556;-63
2021/09/26 04:48:53;;;;;;;19.50;14.80;;;14.50;99.90;;;;;;5095706;28;20942;-63
2021/09/26 04:51:19;;;;;;;24.50;16.10;;;14.50;99.90;;;;;;5077717;28;20176;-63
2021/09/26 04:53:45;;;;;;;19.63;14.50;;;14.50;99.90;;;;;;5095621;28;20287;-63
2021/09/26 04:56:11;;;;;;;23.50;16.57;;;14.50;99.90;;;;;;5077701;28;20247;-63
2021/09/26 04:58:36;;;;;;;19.97;14.47;;;14.50;99.90;;;;;;5096038;28;20594;-63
2021/09/26 05:01:02;;;;;;;20.10;14.47;;;14.50;99.90;;;;;;5078088;28;20580;-63
2021/09/26 05:03:27;;;;;;;20.37;15.20;;;14.50;99.90;;;;;;5096145;28;20188;-63
2021/09/26 05:05:53;;;;;;;21.07;16.00;;;14.50;99.90;;;;;;5096071;28;20216;-63
2021/09/26 05:08:19;;;;;;;21.20;14.83;;;14.50;99.90;;;;;;5096139;28;20183;-63
2021/09/26 05:10:44;;;;;;;20.27;16.07;;;14.50;99.90;;;;;;5096105;28;20614;-64
2021/09/26 05:13:10;;;;;;;18.77;13.80;;;14.50;99.90;;;;;;5095883;28;20606;-63
2021/09/26 05:15:35;;;;;;;21.47;15.17;;;14.60;99.90;;;;;;5095922;28;20179;-63
2021/09/26 05:18:02;;;;;;;20.33;14.70;;;14.60;99.90;;;;;;5077786;28;20642;-63
2021/09/26 05:20:27;;;;;;;18.23;13.60;;;14.60;99.90;;;;;;5095730;28;20220;-63
2021/09/26 05:22:53;;;;;;;20.83;14.47;;;14.60;99.90;;;;;;5095691;28;20937;-63
2021/09/26 05:25:19;;;;;;;19.33;14.50;;;14.60;99.90;;;;;;5077483;28;20302;-63
2021/09/26 05:27:44;;;;;;;19.73;14.30;;;14.60;99.90;;;;;;5096193;28;20675;-64
2021/09/26 05:30:11;;;;;;;17.00;13.97;;;14.60;99.90;;;;;;5095578;28;20945;-64
2021/09/26 05:32:38;;;;;;;25.73;14.23;;;14.60;99.90;;;;;;5096031;28;20180;-63
2021/09/26 05:35:04;;;;;;;16.87;13.10;;;14.70;99.90;;;;;;5095490;28;20921;-63
2021/09/26 05:37:29;;;;;;;19.27;14.70;;;14.70;99.90;;;;;;5096091;28;20893;-63
2021/09/26 05:39:55;;;;;;;17.07;13.80;;;14.70;99.90;;;;;;5077338;28;20421;-63
2021/09/26 05:42:21;;;;;;;21.27;14.63;;;14.70;99.90;;;;;;5095343;28;20520;-63
2021/09/26 05:44:46;;;;;;;20.00;13.93;;;14.80;99.90;;;;;;5095234;28;20208;-63
2021/09/26 05:47:14;;;;;;;17.57;13.30;;;14.80;99.90;;;;;;5095929;28;20413;-63
2021/09/26 05:49:40;;;;;;;19.33;14.87;;;14.90;99.90;;;;;;5077111;28;20279;-63
2021/09/26 05:52:08;;;;;;;21.17;14.63;;;14.90;99.90;;;;;;5095146;28;20417;-63
2021/09/26 05:54:38;;;;;;;20.20;14.60;;;15.00;99.90;;;;;;5076943;28;20425;-63
2021/09/26 05:57:04;;;;;;;16.50;13.43;;;15.10;99.90;;;;;;5095363;28;20421;-64
2021/09/26 05:59:35;;;;;;;21.20;14.40;;;15.10;99.90;;;;;;5076893;28;20969;-63
2021/09/26 06:02:01;;;;;;;18.10;14.20;;;15.20;99.90;;;;;;5095391;28;20421;-63
2021/09/26 06:04:27;;;;;;;17.80;13.87;;;15.30;99.90;;;;;;5095044;28;20899;-63
2021/09/26 06:06:52;;;;;;;18.10;13.00;;;15.30;99.90;;;;;;5076859;28;20176;-63
2021/09/26 06:09:18;;;;;;;18.33;14.07;;;15.40;99.90;;;;;;5094912;28;20200;-63
2021/09/26 06:11:43;;;;;;;19.97;12.90;;;15.50;99.90;;;;;;5095091;28;20192;-63
2021/09/26 06:14:09;;;;;;;14.57;12.40;;;15.60;99.90;;;;;;5094775;28;20192;-63
2021/09/26 06:16:35;;;;;;;17.73;13.27;;;15.60;99.90;;;;;;5094696;28;20224;-64
2021/09/26 06:19:00;;;;;;;22.13;13.40;;;15.70;99.90;;;;;;5094586;28;20196;-63
2021/09/26 06:21:26;;;;;;;16.90;13.57;;;15.80;99.90;;;;;;5094937;28;20696;-63
2021/09/26 06:23:51;;;;;;;15.90;13.00;;;15.90;99.90;;;;;;5094405;28;20575;-63
2021/09/26 06:26:18;;;;;;;17.40;14.00;;;15.90;99.90;;;;;;5094493;28;20184;-63
2021/09/26 06:28:44;;;;;;;17.80;12.33;;;16.10;99.90;;;;;;5076226;28;20604;-63
2021/09/26 06:31:09;;;;;;;17.70;13.47;;;16.10;99.90;;;;;;5094632;28;20417;-63
2021/09/26 06:33:35;;;;;;;20.40;13.30;;;16.20;99.90;;;;;;5094447;28;20200;-63
2021/09/26 06:36:01;;;;;;;18.47;12.30;;;16.30;99.90;;;;;;5094515;28;20525;-64
2021/09/26 06:38:26;;;;;;;19.33;12.57;;;16.40;99.90;;;;;;5076146;28;20172;-63
2021/09/26 06:40:52;;;;;;;17.03;13.13;;;16.50;99.90;;;;;;5094359;28;20173;-63
2021/09/26 06:43:18;;;;;;;20.13;13.23;;;16.50;99.90;;;;;;5094229;28;20172;-63
2021/09/26 06:45:43;;;;;;;18.13;12.50;;;16.60;99.90;;;;;;5094132;28;20306;-64
2021/09/26 06:48:09;;;;;;;17.90;13.43;;;16.70;99.90;;;;;;5094166;28;20551;-63
2021/09/26 06:50:34;;;;;;;15.00;11.50;;;16.90;99.90;;;;;;5094244;28;20547;-63
2021/09/26 06:53:00;;;;;;;17.23;11.80;;;17.00;99.90;;;;;;5094146;28;20168;-63
2021/09/26 06:55:26;;;;;;;14.70;12.37;;;17.10;99.90;;;;;;5093134;28;20251;-63
2021/09/26 06:57:51;;;;;;;15.60;12.70;;;17.10;99.90;;;;;;5094019;28;20191;-63
2021/09/26 07:00:17;;;;;;;13.97;11.87;;;17.20;99.90;;;;;;5093992;28;20275;-63
2021/09/26 07:02:44;;;;;;;16.67;12.50;;;17.30;99.90;;;;;;5094461;28;20180;-64
2021/09/26 07:05:10;;;;;;;15.50;11.50;;;17.40;99.90;;;;;;5093692;28;20495;-63
2021/09/26 07:07:36;;;;;;;14.67;11.33;;;17.50;99.90;;;;;;5094548;28;20421;-63
2021/09/26 07:10:03;;;;;;;14.13;11.33;;;17.60;99.90;;;;;;5093829;28;20847;-63
2021/09/26 07:12:28;;;;;;;14.60;12.10;;;17.70;99.90;;;;;;5094292;28;20176;-63
2021/09/26 07:14:56;;;;;;;17.47;11.63;;;17.80;99.90;;;;;;5093795;28;20828;-63
2021/09/26 07:17:23;;;;;;;15.60;12.20;;;17.90;99.90;;;;;;5093840;28;20224;-63
2021/09/26 07:19:48;;;;;;;17.47;12.60;;;18.00;99.90;;;;;;5093781;28;20929;-63
2021/09/26 07:22:18;;;;;;;13.90;12.40;;;18.10;99.90;;;;;;5094127;28;20413;-63
2021/09/26 07:24:43;;;;;;;15.37;12.20;;;18.30;99.90;;;;;;5093589;28;20200;-63
2021/09/26 07:27:15;;;;;;;17.30;13.20;;;18.40;99.90;;;;;;5075790;28;20830;-63
2021/09/26 07:29:41;;;;;;;14.83;12.40;;;18.50;99.90;;;;;;5093808;28;20245;-63
2021/09/26 07:32:06;;;;;;;15.27;12.10;;;18.70;99.90;;;;;;5094145;28;20464;-63
2021/09/26 07:34:32;;;;;;;15.33;12.50;;;18.80;99.90;;;;;;5093638;28;20199;-64
2021/09/26 07:36:57;;;;;;;14.30;11.17;;;18.90;99.90;;;;;;5093530;28;20198;-63
2021/09/26 07:39:23;;;;;;;15.23;12.87;;;19.10;99.90;;;;;;5093593;28;20200;-63
2021/09/26 07:41:49;;;;;;;15.80;12.50;;;19.20;99.90;;;;;;5093917;28;20238;-63
2021/09/26 07:44:14;;;;;;;14.87;12.07;;;19.40;99.90;;;;;;5093578;28;20213;-63
2021/09/26 07:46:43;;;;;;;12.70;11.40;;;19.60;99.90;;;;;;5093824;28;20193;-63
2021/09/26 07:49:09;;;;;;;12.63;11.17;;;19.70;99.90;;;;;;5093583;28;20192;-64
2021/09/26 07:51:34;;;;;;;19.03;13.43;;;19.90;99.90;;;;;;5093810;28;20429;-63
2021/09/26 07:54:00;;;;;;;13.63;12.10;;;20.10;99.90;;;;;;5093470;28;20608;-63
2021/09/26 07:56:25;;;;;;;11.43;10.23;;;20.30;99.90;;;;;;5093702;28;20186;-63
2021/09/26 07:58:51;;;;;;;14.97;11.80;;;20.40;99.90;;;;;;5093315;28;20562;-64
2021/09/26 08:01:17;;;;;;;13.40;10.83;;;20.60;99.90;;;;;;5093570;28;20737;-63
2021/09/26 08:03:42;;;;;;;14.33;10.03;;;20.80;99.90;;;;;;5093268;28;20196;-63
2021/09/26 08:06:08;;;;;;;10.60;9.53;;;21.20;99.90;;;;;;5094689;28;20191;-63
2021/09/26 08:08:35;;;;;;;10.83;9.73;;;21.60;99.90;;;;;;5097203;28;20201;-64
2021/09/26 08:11:02;;;;;;;11.37;9.80;;;22.20;99.90;;;;;;5097193;28;20187;-65
2021/09/26 08:13:28;;;;;;;10.27;9.23;;;22.90;99.90;;;;;;5097046;28;20770;-64
2021/09/26 08:15:53;;;;;;;11.47;10.00;;;23.70;99.90;;;;;;5078607;28;20540;-64
2021/09/26 08:18:19;;;;;;;13.03;9.73;;;24.70;99.90;;;;;;5079222;28;20477;-63
2021/09/26 08:20:45;;;;;;;9.90;9.00;;;25.60;99.90;;;;;;5097096;28;20261;-63
2021/09/26 08:23:11;;;;;;;11.57;9.50;;;26.40;99.90;;;;;;5078795;28;20568;-64
2021/09/26 08:25:37;;;;;;;12.03;9.97;;;27.20;99.90;;;;;;5096862;28;20453;-64
2021/09/26 08:28:03;;;;;;;9.70;8.70;;;28.00;99.90;;;;;;5096945;28;20551;-64
2021/09/26 08:30:28;;;;;;;13.17;9.53;;;28.80;99.90;;;;;;5096544;28;20215;-64
2021/09/26 08:32:54;;;;;;;10.30;8.77;;;29.50;99.90;;;;;;5096772;28;20393;-64
2021/09/26 08:35:20;;;;;;;9.97;8.57;;;30.20;99.90;;;;;;5096654;28;20184;-64
2021/09/26 08:37:45;;;;;;;10.00;8.97;;;30.70;98.60;;;;;;5096707;28;20263;-64
2021/09/26 08:40:12;;;;;;;9.83;8.90;;;31.10;97.60;;;;;;5096658;28;20674;-64
2021/09/26 08:42:38;;;;;;;11.70;8.60;;;31.60;96.00;;;;;;5097121;28;20216;-64
2021/09/26 08:45:06;;;;;;;7.93;7.13;;;32.00;95.30;;;;;;5096398;28;20467;-64
2021/09/26 08:47:36;;;;;;;8.23;7.07;;;32.30;93.40;;;;;;5097058;28;20416;-64
2021/09/26 08:50:03;;;;;;;9.90;6.87;;;32.30;93.30;;;;;;5078539;28;20929;-64
2021/09/26 08:52:29;;;;;;;8.03;7.33;;;32.10;92.20;;;;;;5096840;28;20420;-64
2021/09/26 08:54:54;;;;;;;7.70;7.00;;;31.50;91.80;;;;;;5096258;28;20426;-64
2021/09/26 08:57:22;;;;;;;9.93;7.97;;;30.90;92.70;;;;;;5096747;28;20178;-64
2021/09/26 08:59:48;;;;;;;8.90;8.00;;;30.20;92.70;;;;;;5096193;28;20191;-64
2021/09/26 09:02:13;;;;;;;8.30;7.43;;;29.50;93.50;;;;;;5078136;28;20791;-64
2021/09/26 09:04:41;;;;;;;8.50;7.23;;;28.80;94.00;;;;;;5077908;28;20223;-64
2021/09/26 09:07:09;;;;;;;7.30;6.50;;;28.20;94.40;;;;;;5096621;28;20218;-64
2021/09/26 09:09:54;;;;;;;9.77;8.40;;;27.70;95.00;;;;;;5096020;28;20417;-64
2021/09/26 09:12:31;;;;;;;8.97;8.07;;;27.20;96.00;;;;;;5077996;28;20494;-63
2021/09/26 09:15:21;;;;;;;8.03;7.23;;;26.90;97.00;;;;;;5077853;28;20817;-65
2021/09/26 09:17:46;;;;;;;7.77;7.03;;;26.60;97.40;;;;;;5095092;28;20468;-63
2021/09/26 09:20:12;;;;;;;13.10;8.00;;;26.40;97.70;;;;;;5095850;28;20435;-64
2021/09/26 09:22:39;;;;;;;9.73;7.60;;;26.20;97.30;;;;;;5096234;28;20191;-64
2021/09/26 09:25:05;;;;;;;11.00;8.13;;;26.10;97.50;;;;;;5095644;28;20217;-63
2021/09/26 09:27:32;;;;;;;8.90;8.00;;;25.90;97.40;;;;;;5095699;28;20507;-63
2021/09/26 09:29:57;;;;;;;8.30;7.50;;;25.80;98.20;;;;;;5095623;28;20435;-63
2021/09/26 09:32:23;;;;;;;10.67;7.83;;;25.80;98.70;;;;;;5077766;28;20440;-64
2021/09/26 09:34:49;;;;;;;8.60;7.73;;;25.80;98.80;;;;;;5095535;28;20192;-63
2021/09/26 09:37:16;;;;;;;7.90;7.20;;;25.70;99.00;;;;;;5096026;28;20621;-64
2021/09/26 09:40:02;;;;;;;10.20;7.30;;;25.70;99.00;;;;;;5095453;28;20427;-63
2021/09/26 09:42:30;;;;;;;9.20;7.83;;;25.70;99.70;;;;;;5095851;28;20476;-65
2021/09/26 09:44:55;;;;;;;8.37;7.57;;;25.70;99.30;;;;;;5095285;28;20467;-64
2021/09/26 09:47:21;;;;;;;8.30;7.20;;;25.70;99.10;;;;;;5095952;28;20416;-64
2021/09/26 09:49:55;;;;;;;11.33;7.90;;;25.70;99.30;;;;;;5077036;28;20685;-63
2021/09/26 09:52:41;;;;;;;8.57;7.67;;;25.60;99.70;;;;;;5077257;28;20194;-63
2021/09/26 09:55:06;;;;;;;8.53;7.50;;;25.70;99.50;;;;;;5095330;28;20423;-64
2021/09/26 09:57:32;;;;;;;7.60;6.90;;;25.70;99.10;;;;;;5095686;28;20408;-63
2021/09/26 10:00:12;;;;;;;8.60;6.60;;;25.70;99.20;;;;;;5077205;28;20200;-64
2021/09/26 10:02:38;;;;;;;7.10;6.50;;;25.70;98.70;;;;;;5095678;28;20245;-63
2021/09/26 10:05:04;;;;;;;7.00;6.30;;;25.80;98.90;;;;;;5094686;28;20471;-64
2021/09/26 10:07:30;;;;;;;7.13;6.53;;;25.80;98.60;;;;;;5076756;28;20239;-64
2021/09/26 10:09:57;;;;;;;7.30;6.47;;;25.80;98.10;;;;;;5074844;28;20456;-64
2021/09/26 10:12:28;;;;;;;8.50;7.60;;;25.80;98.00;;;;;;5075565;28;20474;-64
2021/09/26 10:14:56;;;;;;;7.60;6.90;;;25.80;98.30;;;;;;5093474;28;20455;-63
2021/09/26 10:17:23;;;;;;;9.37;7.33;;;25.80;98.70;;;;;;5094448;28;20456;-64
2021/09/26 10:19:49;;;;;;;6.47;5.87;;;25.90;98.50;;;;;;5076523;28;20452;-64
2021/09/26 10:22:17;;;;;;;7.80;6.97;;;25.90;98.60;;;;;;5076193;28;20423;-64
2021/09/26 10:25:02;;;;;;;6.60;6.00;;;26.00;98.90;;;;;;5076317;28;21001;-63
2021/09/26 10:27:31;;;;;;;8.30;6.57;;;26.00;98.90;;;;;;5093939;28;20852;-64
2021/09/26 10:30:16;;;;;;;6.80;6.17;;;26.10;98.80;;;;;;5092229;28;20444;-64
2021/09/26 10:32:44;;;;;;;6.50;5.90;;;26.20;98.30;;;;;;5092836;28;20463;-64
2021/09/26 10:35:09;;;;;;;7.97;7.03;;;26.20;98.10;;;;;;5092271;28;20807;-64
2021/09/26 10:37:36;;;;;;;6.77;6.27;;;26.20;97.90;;;;;;5092698;28;20442;-64
2021/09/26 10:40:03;;;;;;;7.27;6.57;;;26.20;97.70;;;;;;5073930;28;20196;-64
2021/09/26 10:42:35;;;;;;;7.30;6.47;;;26.20;97.30;;;;;;5074474;28;20431;-64
2021/09/26 10:45:03;;;;;;;6.47;5.87;;;26.30;97.20;;;;;;5094052;28;20828;-64
2021/09/26 10:47:33;;;;;;;7.57;5.83;;;26.30;96.60;;;;;;5094259;28;20424;-64
2021/09/26 10:50:05;;;;;;;6.37;5.77;;;26.40;97.20;;;;;;5094405;28;20942;-64
2021/09/26 10:52:35;;;;;;;7.13;6.43;;;26.40;96.70;;;;;;5094645;28;20420;-64
2021/09/26 10:57:44;;;;;;;7.20;6.50;;;26.50;96.70;;;;;;5094635;28;20929;-64
2021/09/26 11:00:15;;;;;;;7.30;6.30;;;26.50;96.90;;;;;;5094072;28;20436;-64
2021/09/26 11:02:45;;;;;;;7.70;5.87;;;26.50;96.60;;;;;;5094620;28;20519;-64
2021/09/26 11:05:40;;;;;;;6.30;5.70;;;26.60;96.50;;;;;;5093974;28;20814;-64
2021/09/26 11:08:12;;;;;;;6.60;6.00;;;26.60;96.50;;;;;;5090931;28;20457;-64
2021/09/26 11:10:44;;;;;;;6.10;5.60;;;26.70;96.50;;;;;;5094043;28;20747;-64
2021/09/26 11:13:19;;;;;;;7.43;6.73;;;26.70;96.60;;;;;;5093883;28;20469;-64
2021/09/26 11:16:01;;;;;;;6.30;5.80;;;26.70;96.50;;;;;;5093841;28;20442;-64
2021/09/26 11:18:52;;;;;;;6.00;5.50;;;26.80;96.10;;;;;;5093959;28;20436;-64
2021/09/26 11:21:39;;;;;;;7.00;6.40;;;26.80;95.80;;;;;;5075890;28;20520;-64
2021/09/26 11:24:11;;;;;;;7.07;6.20;;;26.90;96.10;;;;;;5093403;28;20429;-64
2021/09/26 11:27:14;;;;;;;5.60;5.20;;;26.90;96.00;;;;;;5093787;28;20417;-64
2021/09/26 11:29:43;;;;;;;6.87;6.23;;;26.90;95.80;;;;;;5092405;28;20432;-64
2021/09/26 11:32:11;;;;;;;6.00;5.40;;;26.90;95.90;;;;;;5094136;28;20419;-64
2021/09/26 11:34:40;;;;;;;5.87;5.37;;;26.90;95.70;;;;;;5074994;28;20440;-64
2021/09/26 11:37:08;;;;;;;5.60;5.10;;;27.00;95.40;;;;;;5091431;28;20978;-64
2021/09/26 11:39:33;;;;;;;6.20;5.60;;;27.00;95.10;;;;;;5073292;28;20476;-64
2021/09/26 11:42:00;;;;;;;6.10;5.60;;;27.00;95.10;;;;;;5094556;28;20448;-64
2021/09/26 11:44:27;;;;;;;5.93;5.43;;;27.10;95.10;;;;;;5095551;28;20204;-65
2021/09/26 11:46:55;;;;;;;6.43;5.37;;;27.10;95.20;;;;;;5077296;28;20431;-64
2021/09/26 11:49:21;;;;;;;5.57;5.00;;;27.10;95.00;;;;;;5095496;28;20432;-64
2021/09/26 11:51:52;;;;;;;5.77;5.27;;;27.10;95.00;;;;;;5097615;28;20413;-64
2021/09/26 11:54:18;;;;;;;6.90;5.00;;;27.10;95.00;;;;;;5097655;28;20929;-64
2021/09/26 11:56:43;;;;;;;5.53;5.10;;;27.10;94.70;;;;;;5079430;28;20417;-64
2021/09/26 11:59:14;;;;;;;5.50;5.00;;;27.20;94.60;;;;;;5097390;28;20563;-64
2021/09/26 12:01:44;;;;;;;6.53;5.00;;;27.20;94.30;;;;;;5079368;28;20322;-64
2021/09/26 12:04:18;;;;;;;5.50;5.00;;;27.30;94.30;;;;;;5097202;28;21024;-64
2021/09/26 12:06:58;;;;;;;5.47;4.97;;;27.30;94.00;;;;;;5079211;28;20428;-64
2021/09/26 12:09:49;;;;;;;6.30;5.80;;;27.40;94.50;;;;;;5097316;28;20503;-63
2021/09/26 12:12:26;;;;;;;5.90;5.30;;;27.40;94.10;;;;;;5097828;28;20818;-64
2021/09/26 12:15:05;;;;;;;8.00;6.10;;;27.40;94.20;;;;;;5078871;28;20437;-63
2021/09/26 12:17:32;;;;;;;7.03;5.70;;;27.50;94.20;;;;;;5097061;28;20479;-64
2021/09/26 12:20:10;;;;;;;5.83;5.23;;;27.50;93.50;;;;;;5096947;28;20416;-64
2021/09/26 12:22:37;;;;;;;5.53;5.13;;;27.50;93.50;;;;;;5079121;28;20435;-64
2021/09/26 12:25:23;;;;;;;5.77;5.27;;;27.50;93.80;;;;;;5096818;28;20460;-64
2021/09/26 12:27:56;;;;;;;5.60;5.00;;;27.50;93.40;;;;;;5096815;28;20436;-64
2021/09/26 12:30:50;;;;;;;5.40;4.90;;;27.50;93.40;;;;;;5096840;28;20425;-64
2021/09/26 12:33:27;;;;;;;6.77;5.40;;;27.50;93.50;;;;;;5091971;28;20918;-64
2021/09/26 12:36:02;;;;;;;5.80;5.20;;;27.50;93.90;;;;;;5096653;28;20470;-64
2021/09/26 12:38:30;;;;;;;5.60;5.10;;;27.60;93.70;;;;;;5096700;28;20794;-64
2021/09/26 12:40:59;;;;;;;5.03;4.53;;;27.60;93.40;;;;;;5096692;28;20413;-64
2021/09/26 12:43:28;;;;;;;5.40;4.60;;;27.60;92.90;;;;;;5095099;28;20445;-64